Time;durP1;ratioP1;P1;durP2;ratioP2;P2;SDS_P1;SDS_P2;PMS_P1;PMS_P2;Temp;Humidity;BMP_temperature;BMP_pressure;BME280_temperature;BME280_humidity;BME280_pressure;Samples;Min_cycle;Max_cycle;Signal;HPM_P1;HPM_P2
2021/01/15 00:01:38;;;;;;;4.20;3.80;;;;;;;0.82;90.51;100401.02;640027;221;24797;-77
2021/01/15 00:04:06;;;;;;;9.48;4.65;;;;;;;0.91;90.93;100406.13;634444;224;32752;-77
2021/01/15 00:06:34;;;;;;;5.60;4.20;;;;;;;0.93;90.00;100392.34;641971;220;32934;-77
2021/01/15 00:09:03;;;;;;;7.00;4.23;;;;;;;0.86;89.61;100389.73;650011;217;23677;-77
2021/01/15 00:11:31;;;;;;;4.40;3.37;;;;;;;0.82;89.62;100392.89;627411;225;24807;-77
2021/01/15 00:13:59;;;;;;;7.17;3.50;;;;;;;0.83;90.04;100389.87;637831;221;32686;-77
2021/01/15 00:16:27;;;;;;;6.43;4.03;;;;;;;0.85;89.95;100395.77;630663;226;23694;-76
2021/01/15 00:18:55;;;;;;;6.90;4.60;;;;;;;0.79;89.77;100392.22;644346;221;24784;-77
2021/01/15 00:21:23;;;;;;;5.53;4.73;;;;;;;0.70;89.23;100389.67;627560;225;24821;-77
2021/01/15 00:23:52;;;;;;;13.00;4.60;;;;;;;0.79;90.11;100397.34;644423;221;24787;-77
2021/01/15 00:26:19;;;;;;;7.60;4.78;;;;;;;0.87;89.27;100395.23;621435;226;43928;-77
2021/01/15 00:28:47;;;;;;;5.78;4.28;;;;;;;0.88;89.64;100395.59;639833;221;33135;-76
2021/01/15 00:31:15;;;;;;;6.67;4.10;;;;;;;0.91;88.62;100403.12;641167;221;32607;-76
2021/01/15 00:33:43;;;;;;;7.95;4.08;;;;;;;0.94;88.81;100400.39;640994;221;43345;-78
2021/01/15 00:36:11;;;;;;;4.90;4.13;;;;;;;0.74;89.31;100405.72;649863;221;23672;-77
2021/01/15 00:38:39;;;;;;;6.22;4.37;;;;;;;0.80;88.90;100406.67;636186;221;32508;-77
2021/01/15 00:41:07;;;;;;;6.27;4.20;;;;;;;0.75;89.23;100409.48;636602;224;23667;-75
2021/01/15 00:43:35;;;;;;;8.43;4.20;;;;;;;0.76;88.04;100402.63;641030;221;32732;-78
2021/01/15 00:46:07;;;;;;;6.20;4.30;;;;;;;0.81;87.47;100400.64;633611;223;33066;-77
2021/01/15 00:48:31;;;;;;;4.93;3.60;;;;;;;0.72;88.03;100404.97;635834;225;23714;-78
2021/01/15 00:51:09;;;;;;;7.65;4.05;;;;;;;0.76;87.46;100405.19;642629;220;32709;-77
2021/01/15 00:53:37;;;;;;;5.03;3.87;;;;;;;0.67;87.91;100404.36;648227;221;29166;-76
2021/01/15 00:56:05;;;;;;;6.85;4.62;;;;;;;0.69;87.84;100416.17;638799;221;32693;-76
2021/01/15 00:58:33;;;;;;;8.73;4.53;;;;;;;0.65;88.25;100422.81;652386;218;23667;-77
2021/01/15 01:01:01;;;;;;;6.58;4.30;;;;;;;0.70;87.82;100422.11;643607;220;32693;-77
2021/01/15 01:03:29;;;;;;;7.90;4.03;;;;;;;0.63;88.16;100416.94;648148;220;23687;-77
2021/01/15 01:05:57;;;;;;;4.10;3.35;;;;;;;0.69;88.23;100423.02;643119;220;32740;-77
2021/01/15 01:08:24;;;;;;;4.33;3.40;;;;;;;0.53;88.39;100419.95;628042;226;23695;-76
2021/01/15 01:10:52;;;;;;;6.28;3.33;;;;;;;0.60;88.36;100429.45;633680;223;32749;-77
2021/01/15 01:13:20;;;;;;;5.53;3.80;;;;;;;0.54;89.50;100434.39;652559;220;23682;-77
2021/01/15 01:15:48;;;;;;;4.42;3.70;;;;;;;0.45;88.29;100436.15;638512;221;32656;-77
2021/01/15 01:18:16;;;;;;;5.65;3.90;;;;;;;0.56;87.94;100428.78;622316;225;32743;-77
2021/01/15 01:20:44;;;;;;;5.40;3.50;;;;;;;0.45;88.88;100432.31;644887;221;23664;-77
2021/01/15 01:23:12;;;;;;;6.15;3.83;;;;;;;0.44;88.74;100435.78;636508;220;32696;-78
2021/01/15 01:25:40;;;;;;;5.67;3.40;;;;;;;0.46;88.71;100442.09;650735;220;25817;-76
2021/01/15 01:28:08;;;;;;;4.22;3.33;;;;;;;0.41;87.62;100444.86;622521;226;32662;-77
2021/01/15 01:30:37;;;;;;;4.57;3.43;;;;;;;0.37;88.33;100454.05;631405;225;24815;-75
2021/01/15 01:33:04;;;;;;;5.15;3.20;;;;;;;0.40;87.37;100447.49;631994;224;33005;-77
2021/01/15 01:35:32;;;;;;;3.33;3.03;;;;;;;0.39;88.61;100454.34;630755;225;26976;-77
2021/01/15 01:38:00;;;;;;;6.03;3.70;;;;;;;0.44;88.41;100454.14;640719;220;32811;-76
2021/01/15 01:40:28;;;;;;;4.72;3.77;;;;;;;0.48;87.65;100451.80;620469;226;32701;-76
2021/01/15 01:42:56;;;;;;;5.00;3.60;;;;;;;0.34;87.95;100463.98;644640;221;23672;-75
2021/01/15 01:46:33;;;;;;;3.57;3.27;;;;;;;0.38;87.28;100455.70;648144;216;29832;-77
2021/01/15 01:49:01;;;;;;;7.00;4.10;;;;;;;0.42;87.07;100455.91;631955;221;32885;-77
2021/01/15 01:51:29;;;;;;;4.73;4.30;;;;;;;0.37;86.55;100458.70;635204;226;23999;-76
2021/01/15 01:53:57;;;;;;;7.42;5.00;;;;;;;0.41;87.20;100461.94;620455;225;32775;-77
2021/01/15 01:56:25;;;;;;;4.90;4.30;;;;;;;0.52;86.66;100464.35;625706;226;32836;-76
2021/01/15 01:58:53;;;;;;;5.00;3.80;;;;;;;0.56;86.04;100458.63;638396;221;32703;-77
2021/01/15 02:01:22;;;;;;;4.78;3.90;;;;;;;0.53;85.94;100463.45;643869;221;32718;-77
2021/01/15 02:03:51;;;;;;;5.27;3.10;;;;;;;0.47;86.11;100460.37;643446;221;26873;-77
2021/01/15 02:06:18;;;;;;;5.35;3.50;;;;;;;0.55;86.46;100471.05;640061;221;32729;-76
2021/01/15 02:08:46;;;;;;;3.87;2.90;;;;;;;0.42;86.46;100469.53;647166;221;25848;-76
2021/01/15 02:11:16;;;;;;;4.22;3.05;;;;;;;0.51;86.35;100469.09;640407;221;32719;-76
2021/01/15 02:13:45;;;;;;;3.73;2.70;;;;;;;0.37;86.21;100475.33;634638;225;23702;-77
2021/01/15 02:16:13;;;;;;;4.70;2.85;;;;;;;0.40;87.28;100472.62;640224;220;32693;-77
2021/01/15 02:18:42;;;;;;;3.55;3.10;;;;;;;0.44;86.92;100466.47;637911;220;32544;-76
2021/01/15 02:21:51;;;;;;;5.07;3.50;;;;;;;0.33;86.37;100472.55;630172;225;23954;-77
2021/01/15 02:24:22;;;;;;;4.08;3.30;;;;;;;0.41;86.01;100470.44;619664;222;32703;-77
2021/01/15 02:27:03;;;;;;;3.13;2.80;;;;;;;0.39;86.53;100464.57;642603;222;23672;-78
2021/01/15 02:29:31;;;;;;;4.97;3.20;;;;;;;0.38;85.65;100469.31;641293;220;32682;-77
2021/01/15 02:32:13;;;;;;;3.92;2.80;;;;;;;0.41;85.00;100465.77;641618;221;32709;-77
2021/01/15 02:34:46;;;;;;;3.90;2.70;;;;;;;0.35;85.50;100463.07;650511;221;23664;-77
2021/01/15 02:37:15;;;;;;;4.22;2.60;;;;;;;0.37;85.11;100462.99;640668;220;32707;-77
2021/01/15 02:39:45;;;;;;;2.70;2.47;;;;;;;0.27;84.81;100465.98;642020;221;23647;-77
2021/01/15 02:42:13;;;;;;;3.80;2.85;;;;;;;0.32;84.59;100458.11;631548;222;32657;-77
2021/01/15 02:44:41;;;;;;;3.60;2.83;;;;;;;0.36;83.94;100451.94;626044;225;32761;-77
2021/01/15 02:47:09;;;;;;;4.60;2.90;;;;;;;0.28;84.37;100465.53;641215;222;23667;-76
2021/01/15 02:49:37;;;;;;;2.70;2.50;;;;;;;0.26;84.16;100474.56;620213;225;32776;-77
2021/01/15 02:52:05;;;;;;;5.00;2.80;;;;;;;0.39;84.83;100469.69;619794;226;43756;-77
2021/01/15 02:54:34;;;;;;;3.27;2.80;;;;;;;0.25;84.96;100474.64;647709;221;25840;-76
2021/01/15 02:57:02;;;;;;;2.70;2.50;;;;;;;0.34;83.59;100487.00;642749;219;32687;-76
2021/01/15 02:59:31;;;;;;;3.83;2.98;;;;;;;0.37;83.88;100484.28;640292;220;33002;-77
2021/01/15 03:02:00;;;;;;;3.22;2.83;;;;;;;0.45;83.76;100483.93;626732;224;32841;-77
2021/01/15 03:04:31;;;;;;;3.27;2.70;;;;;;;0.32;84.96;100492.64;649798;220;24146;-77
2021/01/15 03:06:59;;;;;;;3.47;2.80;;;;;;;0.42;84.37;100503.24;640354;220;32689;-77
2021/01/15 03:09:27;;;;;;;2.80;2.40;;;;;;;0.28;83.71;100502.62;650942;221;23675;-78
2021/01/15 03:11:55;;;;;;;3.12;2.50;;;;;;;0.24;83.83;100501.11;640314;221;32682;-77
2021/01/15 03:14:23;;;;;;;2.77;2.50;;;;;;;0.33;84.12;100506.26;640404;221;32708;-77
2021/01/15 03:16:52;;;;;;;4.10;2.90;;;;;;;0.29;83.78;100511.98;622883;230;26907;-78
2021/01/15 03:19:20;;;;;;;4.65;2.77;;;;;;;0.37;83.21;100507.30;640901;220;32683;-77
2021/01/15 03:21:50;;;;;;;3.40;2.90;;;;;;;0.36;82.53;100513.78;636528;221;43533;-77
2021/01/15 03:24:16;;;;;;;2.97;2.77;;;;;;;0.32;83.45;100522.05;632132;225;25400;-77
2021/01/15 03:26:44;;;;;;;3.30;2.50;;;;;;;0.31;83.13;100517.84;637754;220;33031;-77
2021/01/15 03:29:14;;;;;;;4.75;2.92;;;;;;;0.35;83.99;100524.91;641381;221;32707;-77
2021/01/15 03:31:43;;;;;;;3.98;2.80;;;;;;;0.40;82.46;100521.67;630950;225;32911;-77
2021/01/15 03:34:11;;;;;;;2.70;2.50;;;;;;;0.25;82.98;100526.61;642969;221;23677;-77
2021/01/15 03:36:39;;;;;;;2.80;2.30;;;;;;;0.32;82.46;100528.45;634728;221;32647;-76
2021/01/15 03:39:07;;;;;;;2.95;2.40;;;;;;;0.34;81.97;100534.31;637538;221;32549;-76
2021/01/15 03:41:36;;;;;;;2.47;2.17;;;;;;;0.39;81.98;100537.47;622725;225;33467;-78
2021/01/15 03:44:04;;;;;;;3.93;2.20;;;;;;;0.31;82.22;100537.48;632346;225;23729;-77
2021/01/15 03:46:32;;;;;;;3.55;2.30;;;;;;;0.32;82.67;100540.41;626213;225;32793;-78
2021/01/15 03:49:00;;;;;;;3.33;2.30;;;;;;;0.28;81.80;100544.40;643771;221;23672;-77
2021/01/15 03:51:27;;;;;;;3.67;2.55;;;;;;;0.35;81.63;100540.26;630618;226;32858;-76
2021/01/15 03:53:55;;;;;;;2.70;2.50;;;;;;;0.35;81.32;100538.53;629408;225;32958;-77
2021/01/15 03:56:23;;;;;;;4.70;2.30;;;;;;;0.27;81.85;100545.72;643975;221;23685;-76
2021/01/15 03:58:51;;;;;;;3.58;2.70;;;;;;;0.26;82.47;100546.63;624003;225;32719;-77
2021/01/15 04:01:19;;;;;;;2.43;2.23;;;;;;;0.21;81.95;100550.69;642297;220;23685;-77
2021/01/15 04:03:48;;;;;;;2.30;2.10;;;;;;;0.18;83.37;100560.23;648626;221;24827;-77
2021/01/15 04:06:16;;;;;;;2.60;2.40;;;;;;;0.12;82.93;100563.88;631901;225;24837;-78
2021/01/15 04:08:43;;;;;;;3.00;2.50;;;;;;;0.15;83.88;100564.22;641126;221;32666;-77
2021/01/15 04:11:12;;;;;;;2.80;2.60;;;;;;;0.22;83.44;100566.41;628180;225;32952;-78
2021/01/15 04:13:39;;;;;;;3.03;2.83;;;;;;;0.21;83.11;100570.31;650867;220;23793;-77
2021/01/15 04:16:07;;;;;;;2.58;2.37;;;;;;;0.22;83.19;100573.25;640421;221;33071;-77
2021/01/15 04:18:35;;;;;;;2.72;2.52;;;;;;;0.20;83.02;100576.33;620595;226;32797;-77
2021/01/15 04:21:05;;;;;;;3.17;2.73;;;;;;;0.17;82.93;100572.19;645257;221;23693;-77
2021/01/15 04:23:32;;;;;;;3.30;2.40;;;;;;;0.19;83.24;100578.06;636799;221;32757;-77
2021/01/15 04:26:00;;;;;;;3.40;3.10;;;;;;;0.10;84.72;100584.03;649233;221;23668;-77
2021/01/15 04:28:28;;;;;;;3.15;2.50;;;;;;;-0.08;85.86;100593.36;635148;221;32833;-78
2021/01/15 04:30:56;;;;;;;2.57;2.20;;;;;;;-0.21;86.54;100608.41;635138;225;24807;-77
2021/01/15 04:33:24;;;;;;;5.30;2.60;;;;;;;-0.28;87.85;100613.42;644138;221;26938;-77
2021/01/15 04:35:51;;;;;;;3.00;2.30;;;;;;;-0.34;88.16;100622.16;622421;226;33006;-77
2021/01/15 04:38:19;;;;;;;4.97;2.37;;;;;;;-0.40;88.90;100624.16;630586;226;25810;-76
2021/01/15 04:40:47;;;;;;;3.98;2.50;;;;;;;-0.36;88.54;100638.45;628471;225;32832;-76
2021/01/15 04:43:16;;;;;;;5.67;2.90;;;;;;;-0.36;88.76;100635.91;640957;220;33045;-76
2021/01/15 04:45:44;;;;;;;4.23;2.33;;;;;;;-0.52;88.61;100628.06;648653;221;23766;-76
2021/01/15 04:48:14;;;;;;;3.40;2.70;;;;;;;-0.41;89.08;100623.78;625431;225;32750;-77
2021/01/15 04:50:43;;;;;;;3.90;2.87;;;;;;;-0.40;89.10;100633.11;635207;221;32574;-77
2021/01/15 04:53:11;;;;;;;4.20;2.93;;;;;;;-0.45;88.77;100641.39;645427;221;23662;-76
2021/01/15 04:55:40;;;;;;;4.80;3.05;;;;;;;-0.36;89.24;100634.17;635600;221;32793;-76
2021/01/15 04:58:08;;;;;;;4.05;3.05;;;;;;;-0.34;88.80;100632.38;641747;220;32688;-76
2021/01/15 05:00:36;;;;;;;7.27;3.20;;;;;;;-0.46;89.44;100634.63;648098;220;24418;-76
2021/01/15 05:03:04;;;;;;;4.65;3.20;;;;;;;-0.43;88.55;100640.42;638504;221;32832;-76
2021/01/15 05:05:33;;;;;;;6.53;3.17;;;;;;;-0.49;88.80;100643.25;638975;224;23697;-76
2021/01/15 05:08:09;;;;;;;7.20;3.40;;;;;;;-0.47;88.73;100645.73;638691;221;32574;-76
2021/01/15 05:10:38;;;;;;;4.17;3.40;;;;;;;-0.45;88.54;100652.88;644168;220;32672;-76
2021/01/15 05:13:07;;;;;;;6.90;4.30;;;;;;;-0.52;89.28;100662.55;636590;225;23731;-75
2021/01/15 05:15:36;;;;;;;5.67;4.03;;;;;;;-0.52;89.18;100647.22;624514;225;32667;-78
2021/01/15 05:18:06;;;;;;;5.30;4.42;;;;;;;-0.56;89.60;100662.30;638333;221;32846;-77
2021/01/15 05:20:35;;;;;;;6.10;4.40;;;;;;;-0.64;90.25;100670.70;638997;220;24948;-77
2021/01/15 05:23:03;;;;;;;5.95;3.80;;;;;;;-0.63;90.06;100668.53;623837;225;32840;-79
2021/01/15 05:25:31;;;;;;;6.42;4.67;;;;;;;-0.69;90.76;100669.62;641370;221;32588;-73
2021/01/15 05:27:59;;;;;;;4.43;4.03;;;;;;;-0.75;91.07;100678.80;630756;225;23704;-73
2021/01/15 05:30:28;;;;;;;7.12;4.20;;;;;;;-0.74;91.31;100686.84;632008;224;32691;-73
2021/01/15 05:32:56;;;;;;;5.23;3.47;;;;;;;-0.83;91.34;100688.50;634463;225;23669;-72
2021/01/15 05:35:24;;;;;;;6.33;3.90;;;;;;;-0.74;90.84;100695.77;635736;221;32633;-76
2021/01/15 05:37:56;;;;;;;5.10;4.20;;;;;;;-0.68;90.86;100686.61;633340;221;32953;-73
2021/01/15 05:40:34;;;;;;;6.67;4.10;;;;;;;-0.67;90.99;100680.61;642874;221;32771;-72
2021/01/15 05:43:02;;;;;;;4.47;3.50;;;;;;;-0.77;91.03;100699.73;640913;221;26995;-72
2021/01/15 05:45:30;;;;;;;9.43;4.00;;;;;;;-0.68;89.83;100703.66;625682;225;32912;-75
2021/01/15 05:47:58;;;;;;;4.50;3.60;;;;;;;-0.73;90.80;100701.27;636223;225;23683;-75
2021/01/15 05:50:38;;;;;;;3.90;3.50;;;;;;;-0.73;90.61;100713.20;625544;225;32662;-73
2021/01/15 05:53:06;;;;;;;4.40;3.50;;;;;;;-0.78;91.10;100721.05;630059;226;23724;-72
2021/01/15 05:55:34;;;;;;;6.03;3.58;;;;;;;-0.78;90.76;100719.78;632292;224;32721;-75
2021/01/15 05:58:10;;;;;;;5.83;3.62;;;;;;;-0.67;89.72;100727.02;640894;221;43392;-75
2021/01/15 06:00:39;;;;;;;4.10;3.43;;;;;;;-0.78;90.10;100731.27;626210;225;23719;-73
2021/01/15 06:03:07;;;;;;;4.90;3.50;;;;;;;-0.75;91.04;100732.86;624488;226;32919;-75
2021/01/15 06:05:35;;;;;;;3.65;3.35;;;;;;;-0.72;90.77;100733.56;639464;221;32758;-75
2021/01/15 06:08:03;;;;;;;4.40;3.40;;;;;;;-0.84;90.87;100741.73;646345;221;23661;-74
2021/01/15 06:10:43;;;;;;;6.75;3.70;;;;;;;-0.75;91.62;100749.46;641459;221;32727;-73
2021/01/15 06:13:12;;;;;;;4.33;3.93;;;;;;;-0.80;91.53;100756.03;631730;225;23696;-72
2021/01/15 06:15:48;;;;;;;4.30;3.60;;;;;;;-0.74;91.17;100758.34;633673;224;32717;-73
2021/01/15 06:18:16;;;;;;;5.70;3.70;;;;;;;-0.77;91.12;100761.02;638653;222;23683;-72
2021/01/15 06:20:45;;;;;;;4.60;3.75;;;;;;;-0.77;91.47;100758.91;644053;220;33008;-73
2021/01/15 06:23:14;;;;;;;5.78;3.85;;;;;;;-0.70;91.29;100766.28;644344;221;32693;-73
2021/01/15 06:25:56;;;;;;;6.70;3.70;;;;;;;-0.83;92.20;100768.09;645908;221;23673;-72
2021/01/15 06:28:32;;;;;;;4.80;3.80;;;;;;;-0.77;91.60;100774.23;633937;221;32586;-74
2021/01/15 06:30:59;;;;;;;5.28;3.70;;;;;;;-0.70;92.10;100773.95;635347;223;32755;-75
2021/01/15 06:33:27;;;;;;;4.50;3.27;;;;;;;-0.84;92.24;100772.81;652522;220;23705;-75
2021/01/15 06:35:56;;;;;;;6.12;4.00;;;;;;;-0.80;92.51;100779.46;626493;225;32748;-74
2021/01/15 06:38:27;;;;;;;5.65;4.00;;;;;;;-0.77;93.12;100785.27;624877;225;32833;-75
2021/01/15 06:40:55;;;;;;;5.97;3.90;;;;;;;-0.88;92.75;100792.50;626026;226;23718;-76
2021/01/15 06:43:24;;;;;;;6.58;4.42;;;;;;;-0.81;93.12;100790.12;625275;225;32722;-75
2021/01/15 06:45:51;;;;;;;7.03;4.85;;;;;;;-0.77;93.00;100794.20;635852;221;32637;-76
2021/01/15 06:48:20;;;;;;;6.27;3.70;;;;;;;-0.83;92.48;100797.45;649239;220;24799;-76
2021/01/15 06:50:47;;;;;;;7.95;4.70;;;;;;;-0.81;92.69;100801.61;638477;221;32625;-74
2021/01/15 06:53:17;;;;;;;7.80;5.08;;;;;;;-0.74;93.45;100808.58;634985;221;32531;-74
2021/01/15 06:55:45;;;;;;;7.40;4.87;;;;;;;-0.91;93.93;100810.50;632163;226;23715;-75
2021/01/15 06:58:18;;;;;;;8.25;4.83;;;;;;;-0.83;94.60;100815.33;638717;221;33213;-75
2021/01/15 07:00:55;;;;;;;6.80;5.00;;;;;;;-0.77;93.13;100816.36;634378;223;32979;-75
2021/01/15 07:03:36;;;;;;;5.95;4.50;;;;;;;-0.78;93.94;100821.91;633645;224;32655;-75
2021/01/15 07:06:04;;;;;;;6.23;4.20;;;;;;;-0.92;94.10;100820.32;639033;224;23837;-75
2021/01/15 07:08:32;;;;;;;8.73;5.30;;;;;;;-0.95;95.17;100828.10;640295;221;32750;-75
2021/01/15 07:11:01;;;;;;;9.83;5.47;;;;;;;-0.86;94.72;100827.73;637152;221;34514;-75
2021/01/15 07:13:29;;;;;;;8.03;5.58;;;;;;;-0.92;94.08;100830.53;638245;221;32672;-75
2021/01/15 07:15:57;;;;;;;8.97;5.77;;;;;;;-0.88;94.71;100831.24;642816;221;23678;-75
2021/01/15 07:18:33;;;;;;;8.75;5.58;;;;;;;-0.83;94.40;100830.64;639559;221;32662;-75
2021/01/15 07:21:06;;;;;;;8.17;5.80;;;;;;;-0.78;94.66;100835.95;638187;221;32959;-74
2021/01/15 07:23:42;;;;;;;10.60;5.70;;;;;;;-0.91;94.53;100841.13;639108;221;24771;-73
2021/01/15 07:26:10;;;;;;;8.40;5.70;;;;;;;-0.73;94.46;100840.43;630587;226;32859;-75
2021/01/15 07:29:56;;;;;;;8.53;5.10;;;;;;;-0.84;95.25;100852.80;651467;217;30825;-75
2021/01/15 07:32:24;;;;;;;9.10;6.08;;;;;;;-0.63;94.81;100854.97;632224;221;32747;-74
2021/01/15 07:34:52;;;;;;;10.03;6.08;;;;;;;-0.60;94.06;100856.12;634190;220;32668;-75
2021/01/15 07:37:21;;;;;;;6.80;5.80;;;;;;;-0.71;93.46;100860.80;655897;216;26811;-75
2021/01/15 07:40:01;;;;;;;7.07;5.43;;;;;;;-0.56;92.97;100863.22;629078;221;32940;-75
2021/01/15 07:42:38;;;;;;;9.85;6.37;;;;;;;-0.60;93.72;100874.00;639709;221;32737;-75
2021/01/15 07:45:07;;;;;;;6.97;5.37;;;;;;;-0.77;93.97;100873.36;647430;220;23879;-75
2021/01/15 07:47:37;;;;;;;10.00;5.77;;;;;;;-0.62;93.78;100881.73;639314;220;32659;-76
2021/01/15 07:50:06;;;;;;;8.13;5.62;;;;;;;-0.57;93.29;100879.44;636328;221;43394;-75
2021/01/15 07:52:34;;;;;;;7.60;5.27;;;;;;;-0.66;93.86;100880.19;642973;221;23683;-75
2021/01/15 07:55:03;;;;;;;8.60;6.03;;;;;;;-0.53;93.42;100886.11;633060;221;32710;-73
2021/01/15 07:57:31;;;;;;;9.40;6.12;;;;;;;-0.45;93.28;100882.80;625758;225;33086;-73
2021/01/15 08:00:18;;;;;;;6.43;5.43;;;;;;;-0.60;93.60;100885.05;626297;225;23697;-75
2021/01/15 08:02:46;;;;;;;8.48;5.80;;;;;;;-0.42;92.98;100890.38;627435;225;32859;-76
2021/01/15 08:05:14;;;;;;;8.38;6.20;;;;;;;-0.41;92.11;100889.48;635162;221;32654;-75
2021/01/15 08:07:42;;;;;;;8.87;5.10;;;;;;;-0.55;92.79;100907.89;643905;220;23711;-75
2021/01/15 08:10:11;;;;;;;8.58;5.90;;;;;;;-0.42;93.54;100900.59;623002;225;32822;-76
2021/01/15 08:12:40;;;;;;;9.73;6.20;;;;;;;-0.38;92.41;100908.52;623680;225;32830;-75
2021/01/15 08:15:27;;;;;;;11.57;5.40;;;;;;;-0.44;93.68;100917.68;632146;225;23688;-75
2021/01/15 08:17:55;;;;;;;6.37;5.17;;;;;;;-0.40;92.86;100929.02;634063;221;32723;-75
2021/01/15 08:20:24;;;;;;;8.20;5.78;;;;;;;-0.35;93.08;100927.12;631671;221;32662;-75
2021/01/15 08:22:52;;;;;;;5.80;4.53;;;;;;;-0.42;92.55;100935.92;642642;221;23661;-75
2021/01/15 08:25:26;;;;;;;8.75;5.30;;;;;;;-0.33;92.62;100938.11;640921;220;32640;-74
2021/01/15 08:27:55;;;;;;;7.95;5.50;;;;;;;-0.23;91.92;100937.32;637589;221;32638;-75
2021/01/15 08:30:23;;;;;;;6.47;5.00;;;;;;;-0.28;92.56;100939.23;634218;225;23712;-75
2021/01/15 08:32:51;;;;;;;6.53;4.92;;;;;;;-0.35;92.17;100951.84;638546;221;32682;-75
2021/01/15 08:35:24;;;;;;;6.60;5.30;;;;;;;-0.22;92.07;100945.82;639328;221;34135;-75
2021/01/15 08:37:58;;;;;;;7.37;5.45;;;;;;;-0.33;92.07;100952.61;634897;221;32678;-75
2021/01/15 08:40:28;;;;;;;6.17;5.20;;;;;;;-0.41;92.71;100963.13;640902;221;23671;-75
2021/01/15 08:42:58;;;;;;;9.38;5.50;;;;;;;-0.32;93.05;100971.71;626537;225;32874;-77
2021/01/15 08:45:27;;;;;;;7.73;5.03;;;;;;;-0.35;93.25;100973.11;646305;221;23675;-75
2021/01/15 08:47:57;;;;;;;8.95;5.90;;;;;;;-0.30;92.17;100977.59;628322;225;32906;-75
2021/01/15 08:50:26;;;;;;;5.70;4.80;;;;;;;-0.40;91.90;100971.18;631126;226;23706;-72
2021/01/15 08:52:54;;;;;;;7.62;5.85;;;;;;;-0.33;91.31;100968.77;639488;220;32640;-72
2021/01/15 08:55:23;;;;;;;7.40;5.12;;;;;;;-0.25;91.30;100971.05;643122;220;32961;-75
2021/01/15 08:57:51;;;;;;;8.60;5.70;;;;;;;-0.12;90.52;100977.37;626435;226;32851;-75
2021/01/15 09:00:25;;;;;;;9.83;6.23;;;;;;;-0.13;90.75;100977.43;639411;222;23674;-76
2021/01/15 09:02:54;;;;;;;8.18;6.10;;;;;;;-0.06;90.99;100986.07;633972;222;32645;-75
2021/01/15 09:05:23;;;;;;;6.43;5.00;;;;;;;-0.14;90.74;100981.71;629502;226;23706;-75
2021/01/15 09:07:51;;;;;;;7.58;5.70;;;;;;;-0.01;90.84;100979.05;638895;221;32717;-75
2021/01/15 09:10:19;;;;;;;7.87;5.60;;;;;;;0.01;89.86;100984.12;633548;221;32811;-72
2021/01/15 09:12:50;;;;;;;8.53;5.30;;;;;;;0.08;90.59;100998.33;634126;221;34696;-75
2021/01/15 09:15:21;;;;;;;17.27;6.03;;;;;;;0.11;90.73;100994.81;645418;221;24830;-76
2021/01/15 09:17:49;;;;;;;7.90;5.80;;;;;;;0.22;90.38;101002.45;643329;221;32715;-75
2021/01/15 09:20:17;;;;;;;6.63;4.60;;;;;;;0.32;90.85;101007.23;642374;222;23682;-77
2021/01/15 09:22:45;;;;;;;8.63;5.90;;;;;;;0.40;88.78;100999.61;626935;225;32836;-75
2021/01/15 09:25:15;;;;;;;8.20;5.87;;;;;;;0.46;88.70;100996.83;634703;221;32696;-72
2021/01/15 09:27:43;;;;;;;7.50;5.00;;;;;;;0.45;89.20;101001.56;630244;226;24853;-73
2021/01/15 09:30:13;;;;;;;7.80;5.60;;;;;;;0.64;88.96;100999.08;635370;221;32656;-73
2021/01/15 09:32:43;;;;;;;7.70;5.63;;;;;;;0.70;88.98;100997.98;644634;221;23673;-74
2021/01/15 09:35:12;;;;;;;10.30;6.20;;;;;;;0.84;87.93;101002.09;641068;221;32938;-74
2021/01/15 09:37:40;;;;;;;7.73;5.80;;;;;;;0.88;88.22;101013.89;637034;221;37479;-74
2021/01/15 09:40:10;;;;;;;8.03;5.67;;;;;;;0.92;86.49;101009.02;636257;222;32654;-74
2021/01/15 09:42:38;;;;;;;7.40;5.90;;;;;;;0.69;87.32;101016.36;628996;225;23630;-76
2021/01/15 09:45:07;;;;;;;8.40;6.30;;;;;;;0.81;87.23;101018.41;623283;225;32853;-74
2021/01/15 09:47:35;;;;;;;7.97;5.10;;;;;;;0.81;87.89;101024.81;629741;225;24902;-75
2021/01/15 09:50:03;;;;;;;8.80;6.08;;;;;;;0.94;87.38;101023.86;627297;225;32834;-75
2021/01/15 09:52:32;;;;;;;6.20;5.07;;;;;;;0.95;86.16;101024.70;634011;225;23711;-74
2021/01/15 09:54:59;;;;;;;6.20;4.83;;;;;;;1.01;86.16;101021.90;637548;225;24846;-75
2021/01/15 09:57:27;;;;;;;8.90;5.80;;;;;;;1.23;85.89;101027.76;631343;225;32884;-75
2021/01/15 09:59:55;;;;;;;8.80;6.00;;;;;;;1.46;85.90;101017.80;627077;225;32980;-75
2021/01/15 10:02:23;;;;;;;7.70;5.45;;;;;;;1.58;83.93;101015.16;637787;220;32692;-74
2021/01/15 10:04:50;;;;;;;7.63;5.00;;;;;;;1.45;84.21;101012.30;642295;221;23672;-75
2021/01/15 10:07:18;;;;;;;10.77;4.83;;;;;;;1.60;85.14;101028.28;627832;225;24826;-74
2021/01/15 10:09:46;;;;;;;6.33;5.15;;;;;;;1.66;82.79;101013.06;621756;226;33015;-74
2021/01/15 10:12:14;;;;;;;6.60;4.90;;;;;;;1.60;83.30;101013.36;642042;221;23699;-74
2021/01/15 10:14:42;;;;;;;8.27;5.27;;;;;;;1.63;84.40;101021.73;625398;225;25116;-74
2021/01/15 10:17:10;;;;;;;7.12;5.47;;;;;;;1.73;84.67;101028.12;638057;222;32978;-74
2021/01/15 10:19:38;;;;;;;7.73;5.40;;;;;;;1.89;85.10;101035.95;644963;221;23664;-75
2021/01/15 10:22:06;;;;;;;6.28;5.28;;;;;;;2.05;83.67;101034.80;637040;221;32649;-75
2021/01/15 10:24:34;;;;;;;9.27;6.00;;;;;;;1.83;83.01;101032.39;632461;226;23697;-75
2021/01/15 10:27:02;;;;;;;7.62;5.70;;;;;;;2.00;83.50;101032.45;624599;226;43853;-73
2021/01/15 10:29:29;;;;;;;7.12;5.42;;;;;;;1.96;81.18;101021.10;637099;221;43350;-73
2021/01/15 10:31:57;;;;;;;7.47;5.20;;;;;;;1.95;82.39;101030.98;636666;225;23704;-73
2021/01/15 10:34:25;;;;;;;6.80;5.30;;;;;;;1.89;83.20;101038.97;640738;221;24824;-72
2021/01/15 10:36:53;;;;;;;9.30;5.30;;;;;;;1.91;82.05;101032.86;643800;221;24781;-73
2021/01/15 10:39:21;;;;;;;8.80;5.70;;;;;;;2.12;83.30;101042.61;636769;221;32755;-72
2021/01/15 10:41:51;;;;;;;8.33;5.80;;;;;;;2.30;82.19;101040.46;640078;221;23700;-73
2021/01/15 10:44:19;;;;;;;6.83;4.83;;;;;;;2.11;81.25;101031.11;642255;221;24805;-73
2021/01/15 10:46:46;;;;;;;7.43;5.63;;;;;;;2.08;82.61;101029.06;637872;221;24786;-73
2021/01/15 10:49:13;;;;;;;9.00;5.30;;;;;;;2.26;82.23;101029.97;641711;221;32675;-73
2021/01/15 10:51:42;;;;;;;11.53;5.43;;;;;;;2.28;82.82;101038.42;647638;221;23753;-73
2021/01/15 10:54:09;;;;;;;7.17;5.13;;;;;;;2.23;80.85;101037.78;626128;226;24845;-73
2021/01/15 10:56:37;;;;;;;5.57;4.90;;;;;;;2.26;80.95;101035.55;635485;225;24871;-73
2021/01/15 10:59:06;;;;;;;7.20;5.23;;;;;;;2.31;81.63;101038.27;641824;221;25121;-72
2021/01/15 11:01:36;;;;;;;7.00;5.55;;;;;;;2.49;81.28;101038.30;628730;225;32814;-73
2021/01/15 11:04:06;;;;;;;6.30;5.20;;;;;;;2.52;81.72;101045.39;646073;220;24868;-73
2021/01/15 11:06:32;;;;;;;7.43;5.30;;;;;;;2.49;81.22;101038.30;641669;221;24841;-72
2021/01/15 11:09:00;;;;;;;6.63;4.67;;;;;;;2.40;80.40;101041.32;642864;220;25034;-72
2021/01/15 11:11:28;;;;;;;5.77;4.93;;;;;;;2.24;80.87;101038.62;629983;225;24848;-72
2021/01/15 11:13:56;;;;;;;5.80;5.17;;;;;;;2.37;80.93;101037.97;644854;221;25152;-72
2021/01/15 11:16:23;;;;;;;7.60;5.20;;;;;;;2.42;80.12;101035.66;638405;220;32777;-72
2021/01/15 11:18:51;;;;;;;11.60;5.50;;;;;;;2.42;79.30;101035.66;646492;221;23665;-74
2021/01/15 11:21:24;;;;;;;6.20;4.83;;;;;;;2.68;80.72;101040.38;648446;221;24808;-73
2021/01/15 11:23:52;;;;;;;6.97;5.40;;;;;;;2.68;79.30;101039.92;628727;225;24817;-73
2021/01/15 11:26:24;;;;;;;7.50;4.50;;;;;;;2.59;79.42;101039.08;638607;222;24797;-73
2021/01/15 11:28:52;;;;;;;9.00;5.43;;;;;;;2.43;79.76;101042.45;631326;225;24915;-73
2021/01/15 11:31:20;;;;;;;6.87;4.73;;;;;;;2.43;79.97;101045.02;639883;221;24795;-73
2021/01/15 11:33:48;;;;;;;5.40;4.20;;;;;;;2.20;79.25;101044.80;640568;222;24786;-73
2021/01/15 11:36:16;;;;;;;5.63;4.10;;;;;;;2.20;78.67;101044.34;643904;221;24910;-74
2021/01/15 11:38:44;;;;;;;7.03;5.00;;;;;;;2.30;78.77;101037.89;636301;221;33356;-73
2021/01/15 11:41:13;;;;;;;5.93;4.53;;;;;;;2.30;78.45;101031.48;642174;222;23657;-73